Lindside, West Virginia
Current Conditions -  °F | °C
As of 5:55 PM on Saturday 20 Dec 2014 (Local Time) from KPSK Reporting Station
Overcast Overcast  
Wind Chill: 38°   Ceiling: 1800
Heat Index: 38°   Visibility: 10mi
Dew Point: 33°   Wind: 0mph
Humidity: 84%   Direction: NA
Pressure: 30.19"   Gusts: NA
Location:  37.45°N, 80.67°W
Report Text: KPSK 202255Z AUTO 00000KT 10SM OVC018 03/01 A3019 RMK AO2 T00310007
Loading
Personal Weather Stations






























Interactive Weather Map New forecast layout! Learn more

10-Day Weather Forecast

Advertisements
Track Severe Weather on mobile